createdAt,value
2022-08-16T00:00:30.386Z,4.80
2022-08-16T00:03:07.601Z,4.78
2022-08-16T00:05:48.574Z,4.75
2022-08-16T00:08:36.053Z,4.57
2022-08-16T00:11:22.111Z,5.10
2022-08-16T00:13:53.658Z,4.60
2022-08-16T00:17:01.134Z,4.88
2022-08-16T00:19:19.791Z,4.65
2022-08-16T00:21:53.258Z,5.20
2022-08-16T00:24:31.242Z,4.85
2022-08-16T00:27:03.490Z,4.32
2022-08-16T00:29:35.236Z,4.82
2022-08-16T00:33:01.360Z,4.78
2022-08-16T00:35:45.117Z,4.88
2022-08-16T00:38:40.670Z,4.60
2022-08-16T00:41:19.587Z,4.68
2022-08-16T00:44:00.212Z,4.80
2022-08-16T00:47:08.061Z,5.03
2022-08-16T00:49:43.482Z,4.70
2022-08-16T00:52:29.564Z,5.13
2022-08-16T00:55:01.914Z,4.95
2022-08-16T00:57:59.584Z,5.03
2022-08-16T01:00:36.295Z,5.07
2022-08-16T01:03:12.668Z,5.38
2022-08-16T01:05:44.077Z,5.50
2022-08-16T01:08:35.221Z,5.28
2022-08-16T01:11:05.533Z,5.68
2022-08-16T01:13:39.712Z,5.88
2022-08-16T01:16:22.279Z,5.55
2022-08-16T01:19:03.228Z,5.72
2022-08-16T01:21:55.253Z,5.70
2022-08-16T01:24:53.626Z,5.88
2022-08-16T01:27:47.053Z,5.72
2022-08-16T01:30:40.218Z,5.95
2022-08-16T01:33:20.049Z,5.85
2022-08-16T01:36:02.500Z,5.82
2022-08-16T01:38:53.279Z,6.38
2022-08-16T01:41:32.516Z,6.18
2022-08-16T01:44:10.207Z,6.28
2022-08-16T01:46:42.857Z,6.57
2022-08-16T01:49:22.424Z,6.93
2022-08-16T01:51:57.604Z,6.85
2022-08-16T01:55:01.113Z,6.63
2022-08-16T01:57:31.513Z,7.10
2022-08-16T02:00:00.761Z,7.10
2022-08-16T02:02:29.100Z,7.00
2022-08-16T02:05:00.199Z,7.53
2022-08-16T02:07:30.568Z,8.05
2022-08-16T02:10:02.108Z,8.13
2022-08-16T02:12:50.426Z,8.25
2022-08-16T02:15:27.731Z,9.18
2022-08-16T02:18:01.116Z,9.60
2022-08-16T02:20:36.085Z,9.18
2022-08-16T02:23:08.364Z,10.38
2022-08-16T02:25:51.946Z,10.23
2022-08-16T02:28:23.609Z,10.93
2022-08-16T02:30:53.372Z,10.40
2022-08-16T02:33:24.938Z,10.15
2022-08-16T02:36:14.367Z,10.10
2022-08-16T02:39:02.585Z,10.15
2022-08-16T02:41:31.120Z,10.82
2022-08-16T02:44:00.173Z,10.90
2022-08-16T02:46:30.164Z,11.27
2022-08-16T02:49:04.346Z,11.45
2022-08-16T02:51:36.813Z,11.15
2022-08-16T02:54:07.183Z,11.25
2022-08-16T02:56:37.508Z,10.48
2022-08-16T02:59:11.338Z,11.15
2022-08-16T03:01:45.353Z,11.20
2022-08-16T03:04:29.816Z,11.43
2022-08-16T03:07:06.324Z,11.70
2022-08-16T03:09:46.678Z,11.20
2022-08-16T03:12:20.014Z,12.00
2022-08-16T03:14:49.271Z,11.18
2022-08-16T03:17:20.174Z,11.32
2022-08-16T03:19:59.504Z,11.50
2022-08-16T03:22:33.644Z,11.63
2022-08-16T03:25:09.442Z,11.15
2022-08-16T03:27:42.849Z,11.38
2022-08-16T03:30:20.300Z,11.20
2022-08-16T03:32:53.143Z,11.55
2022-08-16T03:35:33.015Z,11.93
2022-08-16T03:38:32.918Z,11.88
2022-08-16T03:41:00.646Z,11.75
2022-08-16T03:43:51.874Z,11.40
2022-08-16T03:46:48.374Z,12.10
2022-08-16T03:49:13.159Z,11.00
2022-08-16T03:51:43.527Z,11.73
2022-08-16T03:54:20.419Z,11.80
2022-08-16T03:56:56.880Z,11.70
2022-08-16T03:59:32.648Z,11.57
2022-08-16T04:02:10.634Z,11.80
2022-08-16T04:04:50.388Z,12.23
2022-08-16T04:09:47.832Z,11.88
2022-08-16T04:12:54.661Z,11.80
2022-08-16T04:17:39.113Z,12.38
2022-08-16T04:20:11.083Z,12.63
2022-08-16T04:22:58.446Z,12.98
2022-08-16T04:25:29.703Z,12.85
2022-08-16T04:28:29.237Z,12.50
2022-08-16T04:33:18.633Z,12.80
2022-08-16T04:35:58.094Z,12.27
2022-08-16T04:38:27.124Z,12.25
2022-08-16T04:40:57.075Z,12.43
2022-08-16T04:43:25.774Z,12.32
2022-08-16T04:46:00.238Z,12.45
2022-08-16T04:48:33.887Z,11.90
2022-08-16T04:51:12.118Z,12.45
2022-08-16T04:53:56.592Z,12.60
2022-08-16T04:56:26.792Z,12.80
2022-08-16T04:58:57.689Z,13.05
2022-08-16T05:01:57.570Z,12.98
2022-08-16T05:26:02.336Z,13.38
2022-08-16T06:01:56.818Z,12.25
2022-08-16T06:13:06.596Z,12.48
2022-08-16T06:16:58.094Z,13.00
2022-08-16T06:20:55.668Z,13.40
2022-08-16T06:23:26.959Z,12.93
2022-08-16T06:26:07.738Z,14.07
2022-08-16T06:28:42.931Z,13.43
2022-08-16T06:31:31.113Z,13.88
2022-08-16T06:34:55.843Z,14.25
2022-08-16T06:37:00.651Z,14.38
2022-08-16T06:39:30.045Z,14.23
2022-08-16T06:42:06.583Z,14.20
2022-08-16T06:44:53.270Z,14.77
2022-08-16T06:47:54.416Z,13.48
2022-08-16T06:50:30.729Z,13.25
2022-08-16T06:53:08.382Z,12.95
2022-08-16T06:55:40.390Z,12.83
2022-08-16T06:58:21.663Z,13.13
2022-08-16T07:00:59.518Z,13.23
2022-08-16T07:03:55.442Z,13.95
2022-08-16T07:06:26.478Z,13.63
2022-08-16T07:08:59.374Z,13.60
2022-08-16T07:11:47.243Z,13.73
2022-08-16T07:14:27.212Z,13.35
2022-08-16T07:17:31.476Z,13.30
2022-08-16T07:28:43.810Z,13.77
2022-08-16T07:32:04.470Z,13.75
2022-08-16T07:38:39.367Z,14.85
2022-08-16T07:47:16.400Z,15.10
2022-08-16T07:50:56.661Z,14.55
2022-08-16T07:54:02.663Z,15.85
2022-08-16T08:02:58.269Z,15.75
2022-08-16T08:05:44.798Z,14.80
2022-08-16T08:08:50.511Z,15.90
2022-08-16T08:11:18.266Z,15.57
2022-08-16T08:13:54.841Z,16.38
2022-08-16T08:16:37.520Z,17.45
2022-08-16T08:19:53.142Z,18.65
2022-08-16T08:23:00.991Z,16.53
2022-08-16T08:30:48.883Z,16.40
2022-08-16T08:32:58.248Z,15.98
2022-08-16T08:35:34.982Z,15.90
2022-08-16T08:38:43.593Z,16.13
2022-08-16T08:41:50.341Z,17.10
2022-08-16T09:15:05.576Z,20.20
2022-08-16T09:17:55.931Z,20.35
2022-08-16T09:26:43.074Z,15.90
2022-08-16T09:29:45.465Z,15.75
2022-08-16T09:32:36.562Z,15.70
2022-08-16T09:36:12.340Z,18.85
2022-08-16T09:53:30.058Z,25.83
2022-08-16T09:56:52.260Z,28.37
2022-08-16T10:09:42.315Z,25.60
2022-08-16T10:12:10.982Z,26.50
2022-08-16T10:19:01.567Z,30.90
2022-08-16T10:21:57.248Z,33.28
2022-08-16T10:24:55.730Z,33.80
2022-08-16T10:27:46.884Z,35.88
2022-08-16T10:30:25.761Z,31.13
2022-08-16T10:32:58.796Z,24.73
2022-08-16T10:36:12.140Z,30.73
2022-08-16T10:39:18.196Z,22.67
2022-08-16T10:41:48.212Z,22.42
2022-08-16T10:44:22.513Z,23.85
2022-08-16T10:48:00.695Z,23.52
2022-08-16T10:50:58.163Z,21.55
2022-08-16T10:54:07.605Z,23.00
2022-08-16T10:56:56.177Z,22.00
2022-08-16T10:59:39.241Z,27.90
2022-08-16T11:02:58.362Z,25.70
2022-08-16T11:05:06.347Z,26.08
2022-08-16T11:07:42.237Z,21.90
2022-08-16T11:13:58.366Z,17.85
2022-08-16T11:15:57.615Z,14.93
2022-08-16T11:18:54.938Z,13.70
2022-08-16T11:21:29.462Z,14.63
2022-08-16T11:23:58.893Z,15.20
2022-08-16T11:26:27.239Z,13.25
2022-08-16T11:29:13.634Z,12.27
2022-08-16T11:31:45.427Z,14.20
2022-08-16T11:34:16.217Z,21.48
2022-08-16T11:36:53.645Z,19.88
2022-08-16T11:39:29.688Z,16.17
2022-08-16T11:42:00.791Z,11.55
2022-08-16T11:44:52.067Z,11.10
2022-08-16T11:47:20.139Z,10.32
2022-08-16T11:49:47.757Z,5.95
2022-08-16T11:52:17.729Z,5.43
2022-08-16T11:54:53.948Z,7.45
2022-08-16T11:57:24.760Z,6.28
2022-08-16T11:59:53.703Z,6.78
2022-08-16T12:02:32.025Z,5.75
2022-08-16T12:05:00.984Z,6.80
2022-08-16T12:07:28.998Z,5.78
2022-08-16T12:09:59.298Z,7.30
2022-08-16T12:12:28.927Z,5.13
2022-08-16T12:14:59.938Z,5.07
2022-08-16T12:17:32.446Z,5.20
2022-08-16T12:20:27.647Z,5.22
2022-08-16T12:22:57.988Z,4.00
2022-08-16T12:25:28.739Z,3.88
2022-08-16T12:27:58.241Z,3.75
2022-08-16T12:30:38.658Z,3.65
2022-08-16T12:33:09.101Z,3.45
2022-08-16T12:35:38.901Z,3.45
2022-08-16T12:38:37.995Z,2.45
2022-08-16T12:40:58.234Z,2.97
2022-08-16T12:43:25.999Z,2.60
2022-08-16T12:45:59.415Z,2.40
2022-08-16T12:48:51.085Z,2.13
2022-08-16T12:51:24.205Z,2.20
2022-08-16T12:53:54.248Z,2.00
2022-08-16T12:56:26.039Z,2.17
2022-08-16T12:58:56.265Z,1.90
2022-08-16T13:01:28.701Z,1.70
2022-08-16T13:04:20.710Z,1.90
2022-08-16T13:06:48.617Z,2.25
2022-08-16T13:09:26.711Z,1.83
2022-08-16T13:12:04.386Z,1.90
2022-08-16T13:14:39.383Z,1.90
2022-08-16T13:17:17.011Z,1.88
2022-08-16T13:20:08.137Z,1.90
2022-08-16T13:22:41.449Z,2.10
2022-08-16T13:25:13.107Z,2.20
2022-08-16T13:28:02.308Z,1.70
2022-08-16T13:30:42.385Z,2.10
2022-08-16T13:33:15.753Z,2.38
2022-08-16T13:35:55.367Z,2.50
2022-08-16T13:38:31.393Z,2.45
2022-08-16T13:41:04.551Z,2.72
2022-08-16T13:43:38.061Z,3.00
2022-08-16T13:46:06.705Z,3.40
2022-08-16T13:48:42.533Z,4.10
2022-08-16T13:51:18.113Z,4.32
2022-08-16T13:53:59.239Z,2.80
2022-08-16T13:56:37.842Z,3.08
2022-08-16T13:59:20.421Z,2.47
2022-08-16T14:01:54.718Z,2.60
2022-08-16T14:04:27.073Z,2.40
2022-08-16T14:06:59.370Z,2.30
2022-08-16T14:09:30.352Z,1.80
2022-08-16T14:12:00.914Z,2.10
2022-08-16T14:14:30.210Z,1.88
2022-08-16T14:17:01.067Z,1.90
2022-08-16T14:19:29.944Z,1.80
2022-08-16T14:22:14.243Z,1.88
2022-08-16T14:24:47.807Z,1.98
2022-08-16T14:27:18.356Z,2.55
2022-08-16T14:29:49.826Z,1.90
2022-08-16T14:32:32.470Z,2.30
2022-08-16T14:35:07.402Z,3.08
2022-08-16T14:37:36.035Z,3.33
2022-08-16T14:40:06.108Z,3.40
2022-08-16T14:42:33.903Z,3.70
2022-08-16T14:45:10.242Z,3.20
2022-08-16T14:47:38.495Z,3.40
2022-08-16T14:50:08.774Z,3.17
2022-08-16T14:52:56.376Z,3.90
2022-08-16T15:03:22.409Z,3.72
2022-08-16T15:05:50.255Z,3.88
2022-08-16T15:08:21.807Z,3.92
2022-08-16T15:11:04.619Z,4.07
2022-08-16T15:13:32.868Z,4.13
2022-08-16T15:16:02.948Z,4.47
2022-08-16T15:18:33.394Z,4.90
2022-08-16T15:21:02.365Z,4.90
2022-08-16T15:23:33.660Z,4.30
2022-08-16T15:26:02.867Z,5.35
2022-08-16T15:28:33.071Z,5.63
2022-08-16T15:31:03.845Z,5.82
2022-08-16T15:33:34.566Z,5.97
2022-08-16T15:36:03.664Z,5.70
2022-08-16T15:38:56.981Z,6.70
2022-08-16T15:41:34.184Z,7.40
2022-08-16T15:44:10.353Z,6.90
2022-08-16T15:46:55.578Z,6.53
2022-08-16T15:49:37.231Z,6.97
2022-08-16T15:52:29.239Z,7.40
2022-08-16T15:55:01.029Z,7.00
2022-08-16T15:57:41.745Z,7.35
2022-08-16T16:00:15.141Z,7.15
2022-08-16T16:02:45.160Z,7.70
2022-08-16T16:05:14.091Z,8.07
2022-08-16T16:07:55.845Z,8.98
2022-08-16T16:10:29.825Z,8.88
2022-08-16T16:13:08.830Z,9.02
2022-08-16T16:15:40.525Z,8.75
2022-08-16T16:18:10.289Z,9.93
2022-08-16T16:20:56.469Z,9.48
2022-08-16T16:23:29.730Z,9.20
2022-08-16T16:25:57.928Z,10.15
2022-08-16T16:29:05.423Z,10.27
2022-08-16T16:31:22.768Z,10.95
2022-08-16T16:33:55.745Z,10.93
2022-08-16T16:36:36.193Z,11.77
2022-08-16T16:39:15.785Z,11.93
2022-08-16T16:44:32.087Z,11.23
2022-08-16T16:47:01.597Z,12.25
2022-08-16T16:49:29.255Z,12.63
2022-08-16T16:52:06.436Z,12.65
2022-08-16T16:54:35.663Z,13.45
2022-08-16T16:57:04.275Z,12.45
2022-08-16T16:59:31.798Z,12.95
2022-08-16T17:02:38.963Z,13.02
2022-08-16T17:04:48.641Z,13.43
2022-08-16T17:07:17.245Z,12.40
2022-08-16T17:09:46.852Z,13.25
2022-08-16T17:12:25.120Z,12.77
2022-08-16T17:15:02.467Z,12.30
2022-08-16T17:17:30.019Z,12.93
2022-08-16T17:20:05.691Z,12.95
2022-08-16T17:22:41.517Z,12.95
2022-08-16T17:25:12.409Z,13.35
2022-08-16T17:27:40.893Z,13.23
2022-08-16T17:30:16.402Z,13.30
2022-08-16T17:32:54.608Z,13.93
2022-08-16T17:35:35.552Z,24.27
2022-08-16T17:38:05.910Z,33.35
2022-08-16T17:40:46.906Z,36.15
2022-08-16T17:43:23.568Z,33.20
2022-08-16T17:45:51.684Z,21.45
2022-08-16T17:48:19.806Z,13.43
2022-08-16T17:50:48.691Z,12.35
2022-08-16T17:53:22.941Z,13.25
2022-08-16T17:55:51.570Z,12.70
2022-08-16T17:58:22.930Z,12.80
2022-08-16T18:00:55.220Z,11.32
2022-08-16T18:04:07.639Z,11.45
2022-08-16T18:06:29.677Z,12.00
2022-08-16T18:09:03.681Z,12.68
2022-08-16T18:11:33.983Z,12.68
2022-08-16T18:14:01.880Z,11.50
2022-08-16T18:16:29.525Z,11.55
2022-08-16T18:18:57.604Z,11.07
2022-08-16T18:24:19.093Z,11.55
2022-08-16T18:29:21.310Z,12.38
2022-08-16T18:32:10.726Z,12.32
2022-08-16T18:34:44.969Z,11.85
2022-08-16T18:37:36.609Z,13.32
2022-08-16T18:40:11.519Z,13.63
2022-08-16T18:42:41.261Z,14.13
2022-08-16T18:45:18.465Z,14.23
2022-08-16T18:47:53.397Z,15.48
2022-08-16T18:51:03.890Z,17.60
2022-08-16T18:53:28.113Z,19.50
2022-08-16T18:56:00.410Z,20.60
2022-08-16T18:58:30.236Z,21.65
2022-08-16T19:01:01.255Z,22.75
2022-08-16T19:03:42.916Z,21.65
2022-08-16T19:06:21.259Z,21.73
2022-08-16T19:08:54.317Z,21.35
2022-08-16T19:14:15.576Z,20.83
2022-08-16T19:16:46.038Z,20.95
2022-08-16T19:19:16.795Z,21.77
2022-08-16T19:21:44.834Z,24.30
2022-08-16T19:24:18.654Z,23.85
2022-08-16T19:26:46.252Z,24.45
2022-08-16T19:29:14.664Z,24.75
2022-08-16T19:31:42.534Z,25.85
2022-08-16T19:34:11.118Z,25.52
2022-08-16T19:36:40.311Z,26.48
2022-08-16T19:39:11.906Z,27.90
2022-08-16T19:41:42.234Z,27.42
2022-08-16T19:44:11.399Z,27.90
2022-08-16T19:46:43.748Z,28.88
2022-08-16T19:49:16.130Z,29.42
2022-08-16T19:51:48.052Z,31.92
2022-08-16T19:54:16.267Z,30.20
2022-08-16T19:56:44.716Z,28.35
2022-08-16T19:59:19.464Z,26.33
2022-08-16T20:01:52.181Z,24.73
2022-08-16T20:04:24.497Z,24.17
2022-08-16T20:06:53.135Z,24.75
2022-08-16T20:09:22.535Z,26.45
2022-08-16T20:11:52.426Z,25.17
2022-08-16T20:14:25.392Z,25.00
2022-08-16T20:16:56.050Z,24.10
2022-08-16T20:19:25.103Z,21.17
2022-08-16T20:21:52.910Z,22.63
2022-08-16T20:24:34.143Z,18.77
2022-08-16T20:27:07.564Z,19.33
2022-08-16T20:29:40.491Z,20.48
2022-08-16T20:32:11.880Z,20.48
2022-08-16T20:34:41.561Z,18.42
2022-08-16T20:37:12.839Z,17.73
2022-08-16T20:39:44.043Z,17.50
2022-08-16T20:42:16.599Z,17.88
2022-08-16T20:44:44.935Z,18.98
2022-08-16T20:47:13.150Z,17.60
2022-08-16T20:49:41.348Z,17.52
2022-08-16T20:54:39.735Z,16.60
2022-08-16T20:57:07.660Z,17.80
2022-08-16T20:59:35.489Z,17.27
2022-08-16T21:02:03.748Z,17.33
2022-08-16T21:04:31.403Z,17.77
2022-08-16T21:06:59.360Z,17.83
2022-08-16T21:09:31.308Z,18.45
2022-08-16T21:12:04.794Z,19.98
2022-08-16T21:14:34.587Z,20.80
2022-08-16T21:17:04.915Z,22.55
2022-08-16T21:19:35.185Z,22.38
2022-08-16T21:22:20.381Z,23.60
2022-08-16T21:24:49.140Z,21.25
2022-08-16T21:27:24.350Z,20.50
2022-08-16T21:30:00.612Z,21.80
2022-08-16T21:32:35.151Z,20.83
2022-08-16T21:35:13.459Z,22.25
2022-08-16T21:37:42.075Z,21.80
2022-08-16T21:40:11.175Z,20.15
2022-08-16T21:42:41.340Z,20.50
2022-08-16T21:45:13.167Z,23.25
2022-08-16T21:47:40.828Z,22.83
2022-08-16T21:50:09.760Z,21.67
2022-08-16T21:52:44.538Z,22.20
2022-08-16T21:55:12.116Z,22.83
2022-08-16T21:57:39.769Z,21.75
2022-08-16T22:00:14.744Z,24.92
2022-08-16T22:02:47.888Z,23.70
2022-08-16T22:05:18.077Z,26.23
2022-08-16T22:07:45.657Z,25.70
2022-08-16T22:11:04.923Z,26.02
2022-08-16T22:13:00.873Z,24.00
2022-08-16T22:15:28.580Z,22.30
2022-08-16T22:17:58.788Z,22.75
2022-08-16T22:20:28.566Z,23.88
2022-08-16T22:23:14.117Z,23.33
2022-08-16T22:25:44.061Z,22.58
2022-08-16T22:28:12.968Z,22.60
2022-08-16T22:30:43.934Z,22.10
2022-08-16T22:33:18.277Z,21.67
2022-08-16T22:36:06.470Z,23.13
2022-08-16T22:38:55.040Z,21.02
2022-08-16T22:43:49.599Z,22.45
2022-08-16T22:46:18.707Z,21.73
2022-08-16T22:48:46.414Z,21.58
2022-08-16T22:51:14.029Z,22.45
2022-08-16T22:53:41.872Z,22.10
2022-08-16T22:56:09.524Z,22.67
2022-08-16T22:58:37.457Z,22.13
2022-08-16T23:01:06.927Z,22.70
2022-08-16T23:03:36.202Z,23.63
2022-08-16T23:06:05.292Z,24.13
2022-08-16T23:08:39.541Z,24.45
2022-08-16T23:11:14.247Z,25.33
2022-08-16T23:13:52.672Z,25.55
2022-08-16T23:16:32.251Z,26.60
2022-08-16T23:19:02.348Z,27.00
2022-08-16T23:21:30.033Z,27.67
2022-08-16T23:23:58.274Z,28.40
2022-08-16T23:26:46.265Z,27.92
2022-08-16T23:29:15.604Z,28.83
2022-08-16T23:32:10.890Z,27.13
2022-08-16T23:34:38.746Z,27.60
2022-08-16T23:37:06.658Z,29.27
2022-08-16T23:39:37.140Z,28.50
2022-08-16T23:42:14.049Z,29.10
2022-08-16T23:44:59.093Z,28.70
2022-08-16T23:47:26.963Z,29.27
2022-08-16T23:50:00.891Z,27.98
2022-08-16T23:52:53.271Z,27.52
2022-08-16T23:55:19.614Z,27.25
2022-08-16T23:57:47.473Z,26.13
